Time;durP1;ratioP1;P1;durP2;ratioP2;P2;SDS_P1;SDS_P2;PMS_P1;PMS_P2;Temp;Humidity;BMP_temperature;BMP_pressure;BME280_temperature;BME280_humidity;BME280_pressure;Samples;Min_cycle;Max_cycle;Signal;HPM_P1;HPM_P2
2022/02/14 00:02:22;;;;;;;;;5.00;5.00;;;;;13.31;65.06;99282.19;6288175;22;44795;-87
2022/02/14 00:04:50;;;;;;;;;6.33;4.67;;;;;13.05;65.20;99249.75;6290686;22;44704;-86
2022/02/14 00:07:16;;;;;;;;;6.00;6.00;;;;;13.20;65.79;99260.13;6288184;22;45521;-87
2022/02/14 00:09:41;;;;;;;;;6.00;5.00;;;;;13.25;65.41;99284.94;6282025;22;46232;-87
2022/02/14 00:12:07;;;;;;;;;4.00;3.33;;;;;13.24;65.72;99267.16;6305796;22;44865;-86
2022/02/14 00:14:36;;;;;;;;;4.00;4.00;;;;;13.00;65.68;99234.69;6279909;22;45435;-86
2022/02/14 00:17:05;;;;;;;;;6.00;4.33;;;;;13.12;65.69;99251.41;6306453;22;45383;-86
2022/02/14 00:19:31;;;;;;;;;5.67;5.67;;;;;13.16;65.45;99272.66;6279527;22;46904;-87
2022/02/14 00:22:04;;;;;;;;;6.00;5.00;;;;;13.19;65.80;99271.72;6280215;22;45477;-86
2022/02/14 00:24:30;;;;;;;;;5.00;5.00;;;;;13.15;65.79;99256.69;6280312;22;45432;-86
2022/02/14 00:26:55;;;;;;;;;5.00;3.00;;;;;12.87;65.58;99216.31;6283191;22;45336;-86
2022/02/14 00:29:22;;;;;;;;;5.33;5.00;;;;;13.17;65.57;99265.53;6280012;22;47459;-87
2022/02/14 00:31:55;;;;;;;;;4.67;4.33;;;;;12.81;65.65;99222.66;6281732;22;45458;-87
2022/02/14 00:34:21;;;;;;;;;5.00;5.00;;;;;13.13;65.73;99264.72;6280467;22;45448;-87
2022/02/14 00:36:46;;;;;;;;;4.67;4.67;;;;;13.14;65.95;99262.91;6306127;22;45434;-87
2022/02/14 00:39:14;;;;;;;;;4.00;4.00;;;;;12.95;65.98;99231.25;6304381;22;45954;-86
2022/02/14 00:41:40;;;;;;;;;4.33;4.00;;;;;12.91;65.61;99221.56;6279265;22;45287;-87
2022/02/14 00:44:05;;;;;;;;;5.00;5.00;;;;;12.92;65.57;99209.09;6279972;22;45356;-87
2022/02/14 00:46:31;;;;;;;;;4.00;4.00;;;;;13.17;65.98;99241.50;6280662;22;45307;-87
2022/02/14 00:49:00;;;;;;;;;4.00;4.00;;;;;12.94;66.10;99199.25;6306075;22;46834;-86
2022/02/14 00:51:26;;;;;;;;;6.00;4.33;;;;;12.97;65.98;99216.09;6282076;22;45380;-86
2022/02/14 00:53:51;;;;;;;;;4.00;3.00;;;;;13.10;65.84;99237.19;6279858;22;45349;-87
2022/02/14 00:56:17;;;;;;;;;4.67;4.67;;;;;13.11;65.82;99225.59;6281816;22;45569;-86
2022/02/14 00:58:43;;;;;;;;;6.33;5.00;;;;;12.92;65.56;99196.63;6281028;22;46907;-85
2022/02/14 01:01:21;;;;;;;;;4.00;4.00;;;;;13.00;65.89;99189.34;6282162;22;45211;-87
2022/02/14 01:03:49;;;;;;;;;5.33;5.33;;;;;13.16;65.78;99215.72;6283079;22;45755;-86
2022/02/14 01:06:16;;;;;;;;;4.00;4.00;;;;;13.24;66.13;99228.91;6282127;22;45338;-87
2022/02/14 01:08:42;;;;;;;;;5.00;3.00;;;;;13.19;66.07;99226.34;6306868;22;46853;-87
2022/02/14 01:11:07;;;;;;;;;3.67;3.67;;;;;12.95;66.16;99193.03;6282750;22;45340;-87
2022/02/14 01:13:36;;;;;;;;;4.00;4.00;;;;;13.15;66.57;99227.31;6283638;22;44795;-87
2022/02/14 01:16:02;;;;;;;;;5.00;5.00;;;;;13.21;66.37;99229.88;6283337;22;45423;-87
2022/02/14 01:18:28;;;;;;;;;8.33;7.00;;;;;12.96;66.70;99192.97;6284301;22;45708;-87
2022/02/14 01:20:53;;;;;;;;;6.00;4.33;;;;;13.20;66.86;99220.09;6308745;22;45175;-86
2022/02/14 01:23:19;;;;;;;;;4.00;4.00;;;;;12.97;67.25;99180.53;6280894;22;44807;-87
2022/02/14 01:25:44;;;;;;;;;7.00;6.00;;;;;13.02;67.12;99190.19;6284565;22;45421;-87
2022/02/14 01:28:11;;;;;;;;;5.33;3.00;;;;;13.01;67.05;99180.44;6285333;22;46257;-87
2022/02/14 01:30:37;;;;;;;;;5.33;5.00;;;;;12.95;67.90;99177.03;6283180;22;45585;-86
2022/02/14 01:33:03;;;;;;;;;6.00;5.00;;;;;13.12;67.99;99203.34;6282444;22;45401;-87
2022/02/14 01:35:28;;;;;;;;;6.33;4.67;;;;;12.96;68.19;99165.41;6282040;22;45333;-87
2022/02/14 01:37:54;;;;;;;;;8.33;5.00;;;;;13.20;68.07;99190.72;6283754;22;47571;-86
2022/02/14 01:40:20;;;;;;;;;6.67;4.00;;;;;13.11;68.00;99172.22;6282501;22;45361;-86
2022/02/14 01:42:46;;;;;;;;;5.00;4.00;;;;;13.10;68.20;99195.38;6281379;22;44644;-87
2022/02/14 01:45:12;;;;;;;;;5.00;4.00;;;;;13.13;68.43;99181.09;6282860;22;45378;-87
2022/02/14 01:47:40;;;;;;;;;4.00;4.00;;;;;13.00;68.94;99162.66;6282071;22;46934;-87
2022/02/14 01:50:07;;;;;;;;;6.67;5.67;;;;;13.17;68.93;99193.47;6281772;22;45398;-87
2022/02/14 01:52:35;;;;;;;;;6.67;4.00;;;;;12.92;69.12;99137.91;6281871;22;45332;-87
2022/02/14 01:55:03;;;;;;;;;9.00;4.67;;;;;13.05;68.76;99172.34;6279586;22;45404;-88
2022/02/14 01:57:29;;;;;;;;;7.00;7.00;;;;;13.10;69.86;99174.00;6282661;22;47272;-87
2022/02/14 01:59:57;;;;;;;;;6.00;5.67;;;;;13.06;70.33;99171.44;6284822;22;45435;-86
2022/02/14 02:02:23;;;;;;;;;6.00;4.00;;;;;13.13;69.36;99178.44;6284916;22;45434;-87
2022/02/14 02:04:49;;;;;;;;;6.00;4.00;;;;;13.14;70.09;99165.03;6287224;22;45390;-86
2022/02/14 02:07:30;;;;;;;;;5.00;5.00;;;;;13.19;69.56;99184.50;6282860;22;45443;-87
2022/02/14 02:09:55;;;;;;;;;5.00;5.00;;;;;12.89;70.02;99130.00;6285804;22;44685;-86
2022/02/14 02:12:24;;;;;;;;;4.67;4.67;;;;;13.14;70.18;99180.16;6284488;22;44770;-87
2022/02/14 02:14:58;;;;;;;;;7.00;7.00;;;;;12.94;70.22;99124.56;6282043;22;45518;-87
2022/02/14 02:17:36;;;;;;;;;4.33;4.33;;;;;12.98;70.43;99132.44;6281327;22;46962;-87
2022/02/14 02:20:05;;;;;;;;;4.00;4.00;;;;;13.11;70.50;99154.44;6283083;22;45343;-87
2022/02/14 02:22:30;;;;;;;;;5.67;4.33;;;;;12.89;71.16;99116.66;6280263;22;45329;-87
2022/02/14 02:24:57;;;;;;;;;4.00;4.00;;;;;12.93;71.36;99126.34;6282003;22;45352;-87
2022/02/14 02:27:25;;;;;;;;;5.00;5.00;;;;;13.11;71.86;99185.56;6281690;22;46416;-87
2022/02/14 02:29:56;;;;;;;;;4.67;4.67;;;;;13.09;72.21;99177.59;6280147;22;45644;-87
2022/02/14 02:32:26;;;;;;;;;6.00;4.67;;;;;12.89;71.94;99138.00;6280391;22;45327;-88
2022/02/14 02:34:51;;;;;;;;;6.67;5.67;;;;;13.06;72.15;99174.13;6279859;22;45413;-87
2022/02/14 02:37:17;;;;;;;;;5.00;4.00;;;;;12.93;73.14;99134.34;6279420;22;47939;-87
2022/02/14 02:39:43;;;;;;;;;5.67;4.00;;;;;13.02;73.17;99162.63;6281755;22;45321;-84
2022/02/14 02:42:18;;;;;;;;;3.67;3.67;;;;;12.87;73.51;99134.50;6280238;22;45763;-88
2022/02/14 02:44:46;;;;;;;;;4.00;4.00;;;;;13.09;73.45;99176.72;6277381;22;45666;-87
2022/02/14 02:47:16;;;;;;;;;5.33;4.00;;;;;12.82;73.51;99131.03;6278289;22;47327;-86
2022/02/14 02:49:43;;;;;;;;;6.00;4.00;;;;;12.80;73.89;99128.41;6278506;22;45342;-87
2022/02/14 02:52:10;;;;;;;;;5.00;5.00;;;;;12.95;73.58;99148.53;6278325;22;45413;-87
2022/02/14 02:54:42;;;;;;;;;4.67;4.33;;;;;12.80;73.86;99107.06;6275684;22;45341;-87
2022/02/14 02:57:08;;;;;;;;;5.67;5.33;;;;;12.89;73.48;99135.34;6278259;22;45361;-87
2022/02/14 02:59:39;;;;;;;;;3.33;3.33;;;;;13.01;74.21;99144.88;6278460;22;45461;-88
2022/02/14 03:02:09;;;;;;;;;4.33;4.33;;;;;12.86;75.27;99123.84;6279478;22;45389;-87
2022/02/14 03:04:37;;;;;;;;;5.67;4.00;;;;;12.75;76.34;99124.94;6278116;22;45350;-87
2022/02/14 03:07:03;;;;;;;;;5.33;5.33;;;;;12.68;78.67;99122.44;6278759;22;48081;-86
2022/02/14 03:09:29;;;;;;;;;7.00;7.00;;;;;12.87;82.55;99165.63;6282963;22;45637;-86
2022/02/14 03:11:56;;;;;;;;;3.67;3.33;;;;;12.80;82.45;99144.41;6283282;22;45354;-87
2022/02/14 03:14:24;;;;;;;;;7.33;7.33;;;;;12.69;82.79;99157.06;6286805;22;45037;-86
2022/02/14 03:16:50;;;;;;;;;9.33;4.33;;;;;12.46;84.75;99109.50;6309261;22;45377;-86
2022/02/14 03:19:15;;;;;;;;;8.67;6.67;;;;;12.49;85.79;99141.47;6283143;22;45353;-86
2022/02/14 03:21:44;;;;;;;;;5.33;4.00;;;;;12.58;86.26;99183.97;6283527;22;45634;-87
2022/02/14 03:24:10;;;;;;;;;6.00;5.00;;;;;12.41;94.28;99192.25;6282564;22;45504;-86
2022/02/14 03:26:35;;;;;;;;;4.33;4.33;;;;;12.24;93.90;99198.81;6285881;22;45026;-87
2022/02/14 03:29:02;;;;;;;;;8.67;5.00;;;;;11.82;94.93;99136.41;6284734;22;45367;-87
2022/02/14 03:31:28;;;;;;;;;7.33;5.00;;;;;11.80;95.79;99146.22;6284138;22;45395;-87
2022/02/14 03:33:54;;;;;;;;;2.00;2.00;;;;;11.85;95.54;99185.22;6285190;22;45409;-87
2022/02/14 03:36:23;;;;;;;;;3.00;3.00;;;;;11.81;95.40;99193.28;6286399;22;46671;-87
2022/02/14 03:38:51;;;;;;;;;4.00;2.00;;;;;11.72;95.07;99201.41;6287390;22;45264;-87
2022/02/14 03:41:17;;;;;;;;;4.00;4.00;;;;;11.45;95.26;99167.19;6310905;22;45266;-88
2022/02/14 03:43:47;;;;;;;;;3.33;3.33;;;;;11.35;94.59;99158.44;6287709;22;45373;-87
2022/02/14 03:46:15;;;;;;;;;4.67;3.67;;;;;11.67;92.60;99207.69;6286701;22;45491;-87
2022/02/14 03:48:43;;;;;;;;;3.00;3.00;;;;;11.56;93.52;99195.41;6283539;22;45358;-87
2022/02/14 03:51:09;;;;;;;;;2.00;2.00;;;;;11.60;91.26;99212.25;6283938;22;45498;-87
2022/02/14 03:53:34;;;;;;;;;2.00;2.00;;;;;11.50;93.04;99205.28;6282607;22;45554;-87
2022/02/14 03:56:00;;;;;;;;;1.67;1.67;;;;;11.74;91.75;99266.19;6310284;22;46761;-87
2022/02/14 03:58:26;;;;;;;;;1.00;1.00;;;;;11.71;89.60;99266.19;6284000;22;45369;-87
2022/02/14 04:00:52;;;;;;;;;1.00;0.00;;;;;11.60;87.65;99273.47;6289162;22;44767;-87
2022/02/14 04:03:18;;;;;;;;;0.00;0.00;;;;;11.58;86.73;99293.91;6286096;22;45616;-87
2022/02/14 04:05:45;;;;;;;;;0.00;0.00;;;;;11.49;86.32;99302.91;6285272;22;46926;-87
2022/02/14 04:08:13;;;;;;;;;0.00;0.00;;;;;11.24;85.92;99280.16;6288282;22;45312;-87
2022/02/14 04:10:48;;;;;;;;;0.00;0.00;;;;;11.27;86.64;99294.31;6287213;22;45359;-87
2022/02/14 04:13:22;;;;;;;;;2.00;0.00;;;;;11.30;86.53;99307.56;6262973;22;45319;-86
2022/02/14 04:15:48;;;;;;;;;0.00;0.00;;;;;11.30;86.39;99320.00;6284903;22;47795;-87
2022/02/14 04:18:13;;;;;;;;;0.00;0.00;;;;;11.16;86.05;99296.22;6285697;22;45760;-87
2022/02/14 04:20:39;;;;;;;;;0.00;0.00;;;;;11.23;85.65;99324.53;6287292;22;45447;-87
2022/02/14 04:23:04;;;;;;;;;0.00;0.00;;;;;11.14;85.18;99320.16;6284708;22;45438;-87
2022/02/14 04:25:32;;;;;;;;;0.00;0.00;;;;;11.16;85.09;99325.47;6282142;22;46915;-87
2022/02/14 04:27:58;;;;;;;;;0.00;0.00;;;;;10.95;85.30;99316.84;6282148;22;45211;-88
2022/02/14 04:30:25;;;;;;;;;0.00;0.00;;;;;11.08;85.32;99348.63;6281910;22;45420;-87
2022/02/14 04:32:51;;;;;;;;;0.00;0.00;;;;;10.83;85.05;99306.31;6284383;22;45625;-87
2022/02/14 04:35:16;;;;;;;;;0.00;0.00;;;;;11.10;85.31;99361.00;6283928;22;45542;-87
2022/02/14 04:38:25;;;;;;;;;0.00;0.00;;;;;11.15;85.07;99358.28;6282269;22;45219;-87
2022/02/14 04:40:51;;;;;;;;;1.00;0.00;;;;;11.12;84.98;99366.31;6280150;22;45488;-87
2022/02/14 04:43:16;;;;;;;;;1.00;0.00;;;;;11.00;84.96;99357.56;6280924;22;45349;-87
2022/02/14 04:45:45;;;;;;;;;0.00;0.00;;;;;11.02;84.66;99370.84;6279684;22;46917;-87
2022/02/14 04:48:13;;;;;;;;;0.00;0.00;;;;;10.81;84.32;99340.03;6281181;22;45393;-88
2022/02/14 04:54:45;;;;;;;;;0.00;0.00;;;;;11.10;84.06;99382.31;6284481;22;44747;-87
2022/02/14 04:57:11;;;;;;;;;0.00;0.00;;;;;11.00;84.13;99381.50;6255529;22;46849;-87
2022/02/14 04:59:36;;;;;;;;;0.00;0.00;;;;;10.98;84.09;99387.75;6256393;22;45382;-87
2022/02/14 05:02:02;;;;;;;;;0.00;0.00;;;;;10.92;84.14;99398.44;6255364;22;44922;-87
2022/02/14 05:04:40;;;;;;;;;0.00;0.00;;;;;10.83;83.83;99378.13;6229432;22;45474;-87
2022/02/14 05:07:05;;;;;;;;;0.00;0.00;;;;;10.88;84.11;99394.91;6255189;22;45656;-87
2022/02/14 05:09:31;;;;;;;;;0.00;0.00;;;;;10.93;83.77;99413.53;6251001;22;45267;-87
2022/02/14 05:11:58;;;;;;;;;0.00;0.00;;;;;10.74;84.13;99387.06;6225417;22;45355;-87
2022/02/14 05:14:23;;;;;;;;;0.00;0.00;;;;;10.88;83.90;99408.22;6252917;22;44789;-87
2022/02/14 05:16:49;;;;;;;;;0.67;0.67;;;;;10.59;83.88;99377.44;6225719;22;47157;-87
2022/02/14 05:19:14;;;;;;;;;0.00;0.00;;;;;10.55;84.02;99378.34;6252499;22;45372;-87
2022/02/14 05:21:40;;;;;;;;;0.00;0.00;;;;;10.81;83.64;99446.41;6251567;22;45383;-87
2022/02/14 05:24:06;;;;;;;;;0.33;0.33;;;;;10.60;83.76;99410.22;6225741;22;45344;-87
2022/02/14 05:26:31;;;;;;;;;0.67;0.67;;;;;10.44;83.72;99379.31;6252275;22;45370;-87
2022/02/14 05:28:59;;;;;;;;;2.00;2.00;;;;;10.43;83.60;99402.38;6252169;22;45333;-87
2022/02/14 05:31:26;;;;;;;;;0.00;0.00;;;;;10.49;83.45;99412.97;6251558;22;45339;-87
2022/02/14 05:33:53;;;;;;;;;0.00;0.00;;;;;10.62;83.82;99445.66;6226164;22;45270;-87
2022/02/14 05:36:19;;;;;;;;;1.00;0.00;;;;;10.52;84.13;99439.53;6253175;22;45176;-87
2022/02/14 05:38:45;;;;;;;;;0.67;0.00;;;;;10.46;84.08;99444.88;6252660;22;45423;-87
2022/02/14 05:41:11;;;;;;;;;0.00;0.00;;;;;10.41;83.67;99447.56;6251574;22;45515;-87
2022/02/14 05:43:37;;;;;;;;;0.00;0.00;;;;;10.41;83.98;99458.19;6251002;22;44849;-86
2022/02/14 05:46:02;;;;;;;;;0.00;0.00;;;;;10.40;83.69;99466.16;6250192;22;46255;-87
2022/02/14 05:48:28;;;;;;;;;0.00;0.00;;;;;10.26;84.29;99454.69;6252836;22;45386;-86
2022/02/14 05:50:56;;;;;;;;;0.67;0.67;;;;;10.25;84.12;99460.91;6250923;22;45270;-87
2022/02/14 05:53:21;;;;;;;;;1.00;0.00;;;;;10.25;84.06;99468.88;6224951;22;45657;-86
2022/02/14 05:55:47;;;;;;;;;0.00;0.00;;;;;10.19;84.04;99478.63;6269262;22;45633;-87
2022/02/14 05:58:13;;;;;;;;;0.00;0.00;;;;;10.28;84.11;99492.78;6286716;22;45319;-86
2022/02/14 06:00:43;;;;;;;;;0.00;0.00;;;;;10.19;84.34;99483.09;6286285;22;45633;-87
2022/02/14 06:03:12;;;;;;;;;0.00;0.00;;;;;10.06;84.32;99470.72;6286676;22;45344;-87
2022/02/14 06:05:37;;;;;;;;;0.00;0.00;;;;;10.30;84.08;99506.97;6287899;22;45331;-87
2022/02/14 06:08:05;;;;;;;;;1.00;1.00;;;;;10.09;84.24;99463.63;6285237;22;45341;-87
2022/02/14 06:10:36;;;;;;;;;1.00;0.00;;;;;10.44;83.80;99522.84;6282664;22;45400;-88
2022/02/14 06:13:02;;;;;;;;;1.00;1.00;;;;;10.27;83.78;99496.34;6283604;22;45304;-86
2022/02/14 06:15:28;;;;;;;;;0.00;0.00;;;;;10.31;83.75;99495.47;6283200;22;46495;-86
2022/02/14 06:17:54;;;;;;;;;0.00;0.00;;;;;10.31;83.66;99496.34;6282231;22;45662;-87
2022/02/14 06:20:28;;;;;;;;;0.00;0.00;;;;;10.36;83.47;99498.97;6308705;22;44838;-86
2022/02/14 06:22:54;;;;;;;;;0.00;0.00;;;;;10.50;83.51;99542.34;6283221;22;45319;-87
2022/02/14 06:25:19;;;;;;;;;0.67;0.00;;;;;10.44;83.36;99537.00;6283478;22;46616;-86
2022/02/14 06:27:48;;;;;;;;;0.00;0.00;;;;;10.21;83.10;99524.69;6284113;22;44712;-87
2022/02/14 06:30:14;;;;;;;;;0.00;0.00;;;;;10.25;83.38;99543.28;6285484;22;45763;-87
2022/02/14 06:32:39;;;;;;;;;0.00;0.00;;;;;10.36;83.42;99576.94;6281654;22;45334;-86
2022/02/14 06:35:05;;;;;;;;;0.33;0.00;;;;;10.08;83.09;99532.72;6282547;22;46685;-86
2022/02/14 06:37:31;;;;;;;;;0.00;0.00;;;;;10.11;83.25;99552.19;6281680;22;45325;-85
2022/02/14 06:39:56;;;;;;;;;0.00;0.00;;;;;10.17;83.62;99562.78;6285230;22;45281;-87
2022/02/14 06:45:47;;;;;;;;;0.67;0.67;;;;;10.15;83.70;99556.59;6286743;22;45281;-88
2022/02/14 06:48:12;;;;;;;;;0.00;0.00;;;;;9.98;83.63;99542.50;6286187;22;44737;-87
2022/02/14 06:50:47;;;;;;;;;1.00;1.00;;;;;10.11;83.33;99567.25;6285845;22;45286;-87
2022/02/14 06:53:12;;;;;;;;;0.00;0.00;;;;;10.08;83.33;99568.16;6285155;22;44920;-86
2022/02/14 06:55:39;;;;;;;;;1.33;1.33;;;;;10.04;83.68;99563.72;6285819;22;45875;-88
2022/02/14 06:58:08;;;;;;;;;1.00;1.00;;;;;10.08;83.31;99585.84;6286436;22;45277;-87
2022/02/14 07:00:34;;;;;;;;;1.00;1.00;;;;;10.01;83.48;99587.63;6287741;22;44814;-87
2022/02/14 07:03:01;;;;;;;;;1.00;1.00;;;;;9.99;83.55;99586.75;6287510;22;45491;-86
2022/02/14 07:05:27;;;;;;;;;2.67;1.00;;;;;9.77;83.61;99557.56;6287168;22;46508;-86
2022/02/14 07:08:03;;;;;;;;;2.67;1.00;;;;;9.82;83.42;99561.13;6287357;22;45358;-87
2022/02/14 07:14:19;;;;;;;;;1.00;1.00;;;;;10.11;83.37;99612.41;6290868;22;45599;-86
2022/02/14 07:19:51;;;;;;;;;2.00;1.00;;;;;9.85;83.38;99588.56;6291487;22;45214;-87
2022/02/14 07:22:23;;;;;;;;;0.67;0.67;;;;;9.93;83.38;99608.00;6291640;22;45399;-86
2022/02/14 07:24:55;;;;;;;;;2.00;2.00;;;;;9.86;83.67;99596.53;6284288;22;45285;-87
2022/02/14 07:27:35;;;;;;;;;4.67;1.33;;;;;9.81;83.39;99592.97;6291492;22;46761;-86
2022/02/14 07:30:49;;;;;;;;;2.00;2.00;;;;;10.15;83.06;99640.72;6291730;22;45288;-87
2022/02/14 07:40:41;;;;;;;;;;;;;;;;;;;;;
2022/02/14 07:53:47;;;;;;;;;1.33;1.00;;;;;9.83;82.70;99628.38;6164421;23;45102;-87
2022/02/14 07:56:45;;;;;;;;;1.33;1.33;;;;;10.01;82.61;99644.28;6141829;23;45519;-87
2022/02/14 09:12:32;;;;;;;;;4.00;2.33;;;;;11.75;79.20;99726.03;6292713;22;46601;-86
2022/02/14 09:15:05;;;;;;;;;1.00;1.00;;;;;11.87;78.96;99730.41;6287596;22;44753;-88
2022/02/14 09:18:06;;;;;;;;;2.33;1.67;;;;;11.81;78.88;99688.75;6289073;22;45351;-88
2022/02/14 09:21:38;;;;;;;;;;;;;;;;;;;;;
2022/02/14 09:47:13;;;;;;;;;;;;;;;;;;;;;
2022/02/14 09:49:41;;;;;;;;;5.00;1.00;;;;;12.44;76.61;99695.28;6280151;22;73228;-86
2022/02/14 09:52:08;;;;;;;;;1.00;1.00;;;;;12.51;76.39;99697.00;6284909;22;44915;-85
2022/02/14 09:54:38;;;;;;;;;2.67;2.00;;;;;12.55;76.13;99688.06;6283390;22;45378;-86
2022/02/14 09:57:04;;;;;;;;;2.00;2.00;;;;;12.65;76.03;99710.19;6282704;22;45215;-86
2022/02/14 09:59:30;;;;;;;;;3.00;3.00;;;;;12.81;76.26;99743.78;6284475;22;44802;-85
2022/02/14 10:02:02;;;;;;;;;2.33;2.00;;;;;12.82;76.16;99734.00;6261500;22;44765;-85
2022/02/14 10:04:28;;;;;;;;;2.00;2.00;;;;;12.86;75.55;99714.38;6284094;22;45327;-85
2022/02/14 10:07:10;;;;;;;;;3.00;3.00;;;;;13.36;75.17;99763.63;6285786;22;47934;-86
2022/02/14 10:09:36;;;;;;;;;2.00;2.00;;;;;13.39;73.64;99763.59;6255445;22;45360;-84
2022/02/14 10:12:11;;;;;;;;;1.00;1.00;;;;;13.21;73.46;99745.13;6253359;22;45685;-85
2022/02/14 10:14:37;;;;;;;;;4.00;2.00;;;;;13.22;73.85;99765.56;6254068;22;45514;-87
2022/02/14 10:17:08;;;;;;;;;2.00;1.00;;;;;13.30;73.44;99768.19;6255896;22;47192;-86
2022/02/14 10:19:39;;;;;;;;;2.00;1.00;;;;;13.35;73.66;99790.34;6256138;22;45256;-86
2022/02/14 10:22:09;;;;;;;;;7.00;2.00;;;;;13.31;72.71;99770.84;6257387;22;45207;-86
2022/02/14 10:24:43;;;;;;;;;3.00;1.00;;;;;13.31;72.90;99769.94;6258477;22;45587;-86
2022/02/14 10:27:11;;;;;;;;;2.00;2.00;;;;;13.26;72.53;99769.97;6259118;22;45833;-86
2022/02/14 10:29:37;;;;;;;;;4.67;2.00;;;;;13.22;72.84;99781.59;6256241;22;45348;-84
2022/02/14 10:32:27;;;;;;;;;12.00;8.67;;;;;13.05;72.30;99763.09;6256780;22;45449;-86
2022/02/14 10:34:55;;;;;;;;;4.00;4.00;;;;;13.15;73.10;99796.81;6280396;22;45473;-84
2022/02/14 10:37:39;;;;;;;;;6.33;3.00;;;;;13.27;72.70;99782.44;6281291;22;45521;-84
2022/02/14 10:40:06;;;;;;;;;3.00;3.00;;;;;13.45;71.66;99788.44;6255743;22;45439;-84
2022/02/14 10:43:25;;;;;;;;;3.67;3.00;;;;;13.66;71.85;99785.50;6251737;22;45274;-85
2022/02/14 10:45:52;;;;;;;;;3.33;2.00;;;;;13.83;71.25;99792.38;6248836;22;45504;-83
2022/02/14 10:48:41;;;;;;;;;2.00;0.33;;;;;14.03;69.90;99787.63;6251110;22;46933;-83
2022/02/14 10:51:07;;;;;;;;;3.00;1.33;;;;;14.03;67.50;99771.59;6253099;22;45329;-83
2022/02/14 10:53:44;;;;;;;;;4.67;3.33;;;;;14.03;66.15;99784.06;6253656;22;45638;-83
2022/02/14 10:56:13;;;;;;;;;1.00;1.00;;;;;13.92;66.56;99786.91;6232685;22;45291;-84
2022/02/14 10:59:14;;;;;;;;;1.00;1.00;;;;;13.80;66.31;99791.53;6258197;22;45227;-84
2022/02/14 11:04:58;;;;;;;;;3.00;3.00;;;;;14.09;66.24;99782.19;6247646;22;45296;-85
2022/02/14 11:07:26;;;;;;;;;4.00;4.00;;;;;14.25;65.45;99779.28;6283901;22;45411;-84
2022/02/14 11:10:12;;;;;;;;;1.00;0.00;;;;;14.30;63.82;99777.38;6259095;22;45466;-86
2022/02/14 11:12:54;;;;;;;;;0.67;0.67;;;;;14.06;63.91;99749.25;6283474;22;45387;-87
2022/02/14 11:52:13;;;;;;;;;7.00;5.67;;;;;14.10;63.34;99751.88;6305433;22;45809;-87
2022/02/14 12:49:45;;;;;;;;;3.33;3.00;;;;;13.79;65.04;99728.31;6257168;22;45403;-85
2022/02/14 12:53:19;;;;;;;;;;;;;;;;;;;;;
2022/02/14 12:56:08;;;;;;;;;3.67;3.67;;;;;13.97;63.91;99691.50;6133534;23;64386;-84
2022/02/14 12:58:50;;;;;;;;;2.67;2.33;;;;;14.25;64.00;99701.72;6136635;23;47185;-84
2022/02/14 13:49:55;;;;;;;;;;;;;;;;;;;;;
2022/02/14 13:56:32;;;;;;;;;2.00;2.00;;;;;13.96;61.24;99636.28;6166103;23;45337;-86
2022/02/14 13:59:28;;;;;;;;;4.00;2.00;;;;;14.02;61.60;99670.91;6141985;22;45871;-86
2022/02/14 14:02:16;;;;;;;;;6.33;3.67;;;;;13.79;61.17;99657.94;6165233;23;45496;-87
2022/02/14 14:12:39;;;;;;;;;4.00;4.00;;;;;13.96;61.34;99674.56;6295123;22;46432;-86
2022/02/14 14:15:19;;;;;;;;;10.67;9.33;;;;;14.03;61.95;99664.66;6355984;22;45419;-86
2022/02/14 14:21:24;;;;;;;;;1.00;1.00;;;;;14.20;59.68;99633.16;6282234;22;45406;-87
2022/02/14 14:27:51;;;;;;;;;2.00;2.00;;;;;14.45;59.16;99659.44;6175004;22;45505;-86
2022/02/14 14:30:21;;;;;;;;;3.00;3.00;;;;;14.70;59.10;99689.28;6202343;22;44833;-84
2022/02/14 14:42:56;;;;;;;;;6.00;3.00;;;;;14.04;60.26;99644.13;6226969;22;45260;-85
2022/02/14 14:45:34;;;;;;;;;2.33;1.33;;;;;13.80;60.38;99644.53;6201373;22;47456;-84
2022/02/14 14:48:32;;;;;;;;;;;;;;;;;;;;;
2022/02/14 14:51:16;;;;;;;;;2.00;1.00;;;;;13.69;61.27;99675.88;6224009;22;68078;-85
2022/02/14 14:53:44;;;;;;;;;2.33;2.33;;;;;13.39;61.34;99654.09;6241009;22;45437;-86
2022/02/14 14:56:20;;;;;;;;;6.67;4.00;;;;;13.53;62.17;99693.06;6286956;22;46578;-85
2022/02/14 14:58:48;;;;;;;;;25.75;25.00;;;;;13.48;63.14;99709.16;6315460;22;45383;-85
2022/02/14 15:04:37;;;;;;;;;3.00;2.00;;;;;13.43;65.58;99705.66;6182869;23;45930;-84
2022/02/14 15:30:30;;;;;;;;;3.00;2.00;;;;;14.02;67.52;99703.00;6133264;23;45423;-84
2022/02/14 15:34:12;;;;;;;;;4.67;2.00;;;;;13.92;67.65;99696.03;6106499;23;45374;-85
2022/02/14 15:50:03;;;;;;;;;1.00;1.00;;;;;12.79;67.47;99676.22;6039655;23;45453;-84
2022/02/14 15:57:00;;;;;;;;;;;;;;;;;;;;;
2022/02/14 16:07:03;;;;;;;;;0.00;0.00;;;;;12.44;68.34;99691.75;5824952;24;45326;-85
2022/02/14 16:10:30;;;;;;;;;1.00;1.00;;;;;12.63;68.29;99732.44;5844043;24;45735;-86
2022/02/14 16:45:49;;;;;;;;;3.00;2.00;;;;;11.47;81.04;99765.28;6334644;22;45765;-84
2022/02/14 16:48:40;;;;;;;;;4.00;2.33;;;;;11.22;81.60;99751.22;6342595;22;45559;-85
2022/02/14 16:52:21;;;;;;;;;;;;;;;;;;;;;
2022/02/14 17:04:47;;;;;;;;;4.67;3.00;;;;;11.15;82.82;99745.06;6352640;22;45514;-85
2022/02/14 17:07:20;;;;;;;;;3.33;3.33;;;;;11.30;82.64;99781.34;6324841;22;45364;-86
2022/02/14 17:09:51;;;;;;;;;3.00;2.33;;;;;11.09;82.69;99754.81;6325193;22;44879;-85
2022/02/14 17:12:29;;;;;;;;;4.67;4.67;;;;;11.11;82.49;99769.00;6354524;22;45360;-84
2022/02/14 17:14:57;;;;;;;;;7.67;7.00;;;;;11.16;82.56;99785.84;6322249;22;46602;-85
2022/02/14 17:17:27;;;;;;;;;4.67;4.67;;;;;11.21;82.60;99802.69;6323340;22;45231;-85
2022/02/14 17:19:54;;;;;;;;;1.67;1.67;;;;;11.05;82.18;99783.22;6325524;22;45452;-84
2022/02/14 17:22:34;;;;;;;;;4.00;4.00;;;;;11.09;82.67;99786.75;6352283;22;45211;-83
2022/02/14 17:28:53;;;;;;;;;2.00;2.00;;;;;10.98;82.86;99792.97;6355685;22;44707;-86
2022/02/14 17:31:35;;;;;;;;;3.67;3.67;;;;;11.08;82.82;99830.22;6306001;22;44909;-86
2022/02/14 17:34:23;;;;;;;;;5.00;3.33;;;;;11.00;82.55;99823.13;6352379;22;45649;-85
2022/02/14 17:37:17;;;;;;;;;6.33;4.00;;;;;10.73;83.15;99792.16;6353782;22;45340;-85
2022/02/14 17:40:02;;;;;;;;;5.00;5.00;;;;;10.78;83.11;99810.78;6351187;22;44842;-86
2022/02/14 17:42:28;;;;;;;;;2.67;2.67;;;;;10.79;83.00;99823.19;6350628;22;45440;-85
2022/02/14 17:45:08;;;;;;;;;2.00;2.00;;;;;10.99;82.51;99855.09;6309839;22;45479;-85
2022/02/14 17:47:35;;;;;;;;;2.00;2.00;;;;;10.94;82.12;99849.75;6317916;22;47197;-84
2022/02/14 17:50:01;;;;;;;;;2.00;2.00;;;;;11.06;81.54;99863.94;6289372;22;45300;-86
2022/02/14 17:52:27;;;;;;;;;3.00;3.00;;;;;11.13;81.29;99868.34;6262268;22;45703;-85
2022/02/14 17:54:52;;;;;;;;;3.00;3.00;;;;;11.19;81.27;99874.56;6289918;22;45338;-86
2022/02/14 17:57:20;;;;;;;;;3.00;3.00;;;;;11.13;82.16;99857.69;6315867;22;45355;-85
2022/02/14 17:59:46;;;;;;;;;4.00;4.00;;;;;11.11;81.81;99865.69;6287994;22;45380;-86
2022/02/14 18:02:17;;;;;;;;;4.00;3.00;;;;;11.22;82.54;99878.97;6315219;22;45394;-86
2022/02/14 18:05:05;;;;;;;;;4.00;3.00;;;;;11.13;82.53;99873.66;6290060;22;45417;-84
2022/02/14 18:07:50;;;;;;;;;6.00;3.00;;;;;10.81;82.70;99829.41;6293501;22;45430;-86
2022/02/14 18:10:24;;;;;;;;;4.00;4.00;;;;;11.13;82.74;99892.28;6262891;22;45378;-86
2022/02/14 18:13:07;;;;;;;;;3.33;2.00;;;;;11.10;83.20;99902.94;6316303;22;44794;-86
2022/02/14 18:15:37;;;;;;;;;4.67;4.67;;;;;10.91;82.78;99895.00;6290640;22;45245;-86
2022/02/14 18:18:13;;;;;;;;;5.00;5.00;;;;;10.83;83.29;99902.09;6317926;22;45411;-86
2022/02/14 18:20:42;;;;;;;;;9.00;7.00;;;;;10.53;83.66;99884.38;6311677;22;45405;-85
2022/02/14 18:23:27;;;;;;;;;8.67;5.00;;;;;10.73;83.54;99933.13;6292765;22;45321;-85
2022/02/14 18:25:53;;;;;;;;;5.00;5.00;;;;;10.68;83.72;99924.25;6315595;22;45257;-85
2022/02/14 18:28:27;;;;;;;;;7.33;7.33;;;;;10.50;85.48;99927.81;6290001;22;45352;-85
2022/02/14 18:30:56;;;;;;;;;6.67;5.00;;;;;10.34;85.50;99925.97;6317185;22;44786;-85
2022/02/14 18:33:25;;;;;;;;;7.33;6.33;;;;;10.36;86.33;99961.41;6289786;22;45239;-84
2022/02/14 18:35:54;;;;;;;;;7.00;5.67;;;;;10.25;86.17;99961.38;6316602;22;45309;-84
2022/02/14 18:38:24;;;;;;;;;4.00;4.00;;;;;10.04;86.11;99948.91;6264931;22;46394;-85
2022/02/14 18:40:51;;;;;;;;;4.67;4.33;;;;;10.09;84.93;99976.38;6290115;22;45376;-85
2022/02/14 18:43:18;;;;;;;;;4.00;4.00;;;;;10.04;85.51;99972.81;6291829;22;45285;-85
2022/02/14 18:45:53;;;;;;;;;3.00;2.67;;;;;10.12;84.57;99986.09;6316671;22;45252;-85